sensor_id;sensor_type;location;lat;lon;timestamp;pressure;altitude;pressure_sealevel;temperature;humidity
1926;BME280;964;42.606;23.588;2024-03-08T00:01:36;94517.34;;;16.42;44.62
1926;BME280;964;42.606;23.588;2024-03-08T00:04:04;94522.72;;;16.21;45.31
1926;BME280;964;42.606;23.588;2024-03-08T00:06:32;94522.66;;;16.52;44.66
1926;BME280;964;42.606;23.588;2024-03-08T00:08:59;94509.63;;;16.61;43.83
1926;BME280;964;42.606;23.588;2024-03-08T00:11:26;94512.25;;;16.86;43.86
1926;BME280;964;42.606;23.588;2024-03-08T00:13:53;94510.03;;;17.40;43.49
1926;BME280;964;42.606;23.588;2024-03-08T00:16:19;94522.19;;;17.51;42.62
1926;BME280;964;42.606;23.588;2024-03-08T00:18:48;94525.13;;;17.05;43.61
1926;BME280;964;42.606;23.588;2024-03-08T00:21:17;94519.53;;;17.48;42.86
1926;BME280;964;42.606;23.588;2024-03-08T00:23:43;94509.19;;;17.50;42.46
1926;BME280;964;42.606;23.588;2024-03-08T00:26:11;94513.84;;;17.39;42.58
1926;BME280;964;42.606;23.588;2024-03-08T00:28:38;94501.72;;;17.20;43.42
1926;BME280;964;42.606;23.588;2024-03-08T00:31:04;94506.09;;;17.55;43.15
1926;BME280;964;42.606;23.588;2024-03-08T00:33:32;94504.41;;;17.79;41.79
1926;BME280;964;42.606;23.588;2024-03-08T00:35:59;94502.28;;;17.59;42.30
1926;BME280;964;42.606;23.588;2024-03-08T00:38:27;94500.94;;;17.20;43.43
1926;BME280;964;42.606;23.588;2024-03-08T00:40:54;94505.78;;;17.42;43.08
1926;BME280;964;42.606;23.588;2024-03-08T00:43:21;94502.31;;;17.49;43.36
1926;BME280;964;42.606;23.588;2024-03-08T00:45:48;94495.44;;;17.48;43.04
1926;BME280;964;42.606;23.588;2024-03-08T00:48:14;94493.09;;;17.57;42.69
1926;BME280;964;42.606;23.588;2024-03-08T00:50:41;94492.31;;;17.53;43.08
1926;BME280;964;42.606;23.588;2024-03-08T00:53:11;94490.25;;;17.16;43.66
1926;BME280;964;42.606;23.588;2024-03-08T00:55:39;94487.84;;;17.39;42.77
1926;BME280;964;42.606;23.588;2024-03-08T00:58:06;94479.75;;;16.84;44.07
1926;BME280;964;42.606;23.588;2024-03-08T01:00:34;94491.97;;;16.85;43.96
1926;BME280;964;42.606;23.588;2024-03-08T01:03:00;94484.41;;;16.66;44.06
1926;BME280;964;42.606;23.588;2024-03-08T01:05:28;94478.88;;;17.01;43.62
1926;BME280;964;42.606;23.588;2024-03-08T01:07:55;94471.19;;;17.10;43.81
1926;BME280;964;42.606;23.588;2024-03-08T01:10:22;94479.69;;;16.91;44.34
1926;BME280;964;42.606;23.588;2024-03-08T01:12:50;94475.28;;;16.53;45.08
1926;BME280;964;42.606;23.588;2024-03-08T01:15:17;94472.16;;;16.72;44.19
1926;BME280;964;42.606;23.588;2024-03-08T01:17:45;94463.59;;;16.98;43.61
1926;BME280;964;42.606;23.588;2024-03-08T01:20:11;94465.78;;;17.17;43.60
1926;BME280;964;42.606;23.588;2024-03-08T01:22:38;94459.06;;;16.88;43.82
1926;BME280;964;42.606;23.588;2024-03-08T01:25:06;94449.13;;;16.92;43.64
1926;BME280;964;42.606;23.588;2024-03-08T01:27:34;94460.59;;;16.93;43.28
1926;BME280;964;42.606;23.588;2024-03-08T01:30:04;94453.63;;;17.02;42.87
1926;BME280;964;42.606;23.588;2024-03-08T01:32:31;94466.91;;;17.20;43.73
1926;BME280;964;42.606;23.588;2024-03-08T01:34:58;94465.84;;;17.07;43.48
1926;BME280;964;42.606;23.588;2024-03-08T01:37:25;94455.25;;;16.89;43.95
1926;BME280;964;42.606;23.588;2024-03-08T01:39:52;94457.59;;;16.80;44.51
1926;BME280;964;42.606;23.588;2024-03-08T01:42:19;94458.28;;;16.91;43.16
1926;BME280;964;42.606;23.588;2024-03-08T01:44:45;94456.78;;;16.90;43.35
1926;BME280;964;42.606;23.588;2024-03-08T01:53:38;94469.25;;;16.28;45.14
1926;BME280;964;42.606;23.588;2024-03-08T01:56:07;94464.88;;;16.76;44.72
1926;BME280;964;42.606;23.588;2024-03-08T01:58:34;94457.06;;;17.06;43.85
1926;BME280;964;42.606;23.588;2024-03-08T02:01:02;94452.97;;;16.88;44.17
1926;BME280;964;42.606;23.588;2024-03-08T02:03:31;94463.13;;;16.31;44.91
1926;BME280;964;42.606;23.588;2024-03-08T02:05:58;94464.56;;;16.60;44.56
1926;BME280;964;42.606;23.588;2024-03-08T02:08:25;94463.94;;;16.13;45.24
1926;BME280;964;42.606;23.588;2024-03-08T02:10:52;94463.22;;;15.99;45.11
1926;BME280;964;42.606;23.588;2024-03-08T02:13:19;94464.63;;;16.39;44.85
1926;BME280;964;42.606;23.588;2024-03-08T02:15:55;94455.94;;;15.99;44.92
1926;BME280;964;42.606;23.588;2024-03-08T02:18:24;94459.59;;;16.62;43.83
1926;BME280;964;42.606;23.588;2024-03-08T02:20:53;94466.13;;;16.40;43.97
1926;BME280;964;42.606;23.588;2024-03-08T02:23:20;94458.09;;;16.47;45.02
1926;BME280;964;42.606;23.588;2024-03-08T02:25:47;94456.16;;;16.51;45.04
1926;BME280;964;42.606;23.588;2024-03-08T02:28:14;94460.69;;;16.75;43.47
1926;BME280;964;42.606;23.588;2024-03-08T02:30:41;94464.19;;;16.51;44.30
1926;BME280;964;42.606;23.588;2024-03-08T02:33:08;94461.28;;;15.39;46.23
1926;BME280;964;42.606;23.588;2024-03-08T02:35:35;94467.38;;;15.18;47.17
1926;BME280;964;42.606;23.588;2024-03-08T02:38:04;94468.94;;;15.48;46.81
1926;BME280;964;42.606;23.588;2024-03-08T02:40:31;94464.63;;;16.39;44.32
1926;BME280;964;42.606;23.588;2024-03-08T02:42:57;94473.91;;;15.78;45.61
1926;BME280;964;42.606;23.588;2024-03-08T02:45:24;94466.84;;;16.54;44.40
1926;BME280;964;42.606;23.588;2024-03-08T02:47:51;94477.28;;;16.17;43.89
1926;BME280;964;42.606;23.588;2024-03-08T02:50:18;94478.50;;;15.81;45.22
1926;BME280;964;42.606;23.588;2024-03-08T02:52:45;94472.31;;;16.19;44.82
1926;BME280;964;42.606;23.588;2024-03-08T02:55:14;94485.34;;;15.71;44.73
1926;BME280;964;42.606;23.588;2024-03-08T02:57:41;94484.53;;;15.10;45.78
1926;BME280;964;42.606;23.588;2024-03-08T03:00:09;94480.72;;;15.01;46.62
1926;BME280;964;42.606;23.588;2024-03-08T03:02:36;94487.63;;;15.37;46.01
1926;BME280;964;42.606;23.588;2024-03-08T03:05:04;94490.31;;;15.76;45.59
1926;BME280;964;42.606;23.588;2024-03-08T03:07:31;94483.03;;;16.12;44.70
1926;BME280;964;42.606;23.588;2024-03-08T03:09:58;94480.41;;;15.77;45.43
1926;BME280;964;42.606;23.588;2024-03-08T03:12:28;94484.94;;;16.11;44.88
1926;BME280;964;42.606;23.588;2024-03-08T03:14:55;94498.34;;;15.62;45.33
1926;BME280;964;42.606;23.588;2024-03-08T03:17:22;94492.56;;;15.42;45.41
1926;BME280;964;42.606;23.588;2024-03-08T03:19:49;94509.88;;;14.55;46.87
1926;BME280;964;42.606;23.588;2024-03-08T03:22:17;94510.78;;;14.94;46.23
1926;BME280;964;42.606;23.588;2024-03-08T03:24:44;94505.75;;;14.68;46.46
1926;BME280;964;42.606;23.588;2024-03-08T03:27:11;94500.09;;;14.94;46.01
1926;BME280;964;42.606;23.588;2024-03-08T03:29:40;94508.84;;;14.81;46.11
1926;BME280;964;42.606;23.588;2024-03-08T03:32:11;94512.25;;;14.78;46.34
1926;BME280;964;42.606;23.588;2024-03-08T03:34:38;94511.94;;;14.93;45.57
1926;BME280;964;42.606;23.588;2024-03-08T03:37:05;94521.13;;;14.23;46.55
1926;BME280;964;42.606;23.588;2024-03-08T03:39:34;94517.13;;;14.58;45.69
1926;BME280;964;42.606;23.588;2024-03-08T03:42:06;94523.03;;;14.23;46.10
1926;BME280;964;42.606;23.588;2024-03-08T03:44:33;94515.06;;;15.27;44.26
1926;BME280;964;42.606;23.588;2024-03-08T03:47:01;94508.16;;;15.15;44.13
1926;BME280;964;42.606;23.588;2024-03-08T03:49:28;94521.56;;;15.40;43.62
1926;BME280;964;42.606;23.588;2024-03-08T03:51:55;94533.44;;;14.39;45.85
1926;BME280;964;42.606;23.588;2024-03-08T03:54:22;94530.63;;;14.24;46.45
1926;BME280;964;42.606;23.588;2024-03-08T03:56:48;94524.91;;;15.09;44.92
1926;BME280;964;42.606;23.588;2024-03-08T03:59:18;94536.09;;;13.84;46.53
1926;BME280;964;42.606;23.588;2024-03-08T04:01:44;94540.97;;;13.79;47.43
1926;BME280;964;42.606;23.588;2024-03-08T04:04:13;94545.75;;;14.10;46.56
1926;BME280;964;42.606;23.588;2024-03-08T04:06:39;94550.75;;;13.64;46.85
1926;BME280;964;42.606;23.588;2024-03-08T04:09:06;94549.66;;;14.19;46.52
1926;BME280;964;42.606;23.588;2024-03-08T04:11:33;94546.06;;;13.94;46.82
1926;BME280;964;42.606;23.588;2024-03-08T04:14:00;94549.25;;;13.66;46.84
1926;BME280;964;42.606;23.588;2024-03-08T04:16:27;94562.03;;;14.45;45.76
1926;BME280;964;42.606;23.588;2024-03-08T04:18:53;94560.81;;;13.88;46.09
1926;BME280;964;42.606;23.588;2024-03-08T04:21:21;94557.28;;;14.28;46.52
1926;BME280;964;42.606;23.588;2024-03-08T04:23:48;94558.72;;;14.11;46.39
1926;BME280;964;42.606;23.588;2024-03-08T04:26:15;94566.16;;;13.88;46.37
1926;BME280;964;42.606;23.588;2024-03-08T04:28:42;94567.63;;;13.82;47.05
1926;BME280;964;42.606;23.588;2024-03-08T04:31:09;94574.63;;;13.16;47.76
1926;BME280;964;42.606;23.588;2024-03-08T04:33:36;94576.63;;;12.93;48.73
1926;BME280;964;42.606;23.588;2024-03-08T04:36:03;94579.03;;;13.05;48.99
1926;BME280;964;42.606;23.588;2024-03-08T04:38:32;94588.53;;;12.73;49.34
1926;BME280;964;42.606;23.588;2024-03-08T04:40:59;94589.78;;;12.53;49.87
1926;BME280;964;42.606;23.588;2024-03-08T04:43:28;94580.00;;;13.23;48.94
1926;BME280;964;42.606;23.588;2024-03-08T04:45:55;94584.66;;;12.67;48.43
1926;BME280;964;42.606;23.588;2024-03-08T04:48:22;94577.69;;;13.18;48.13
1926;BME280;964;42.606;23.588;2024-03-08T04:50:49;94585.31;;;12.90;49.34
1926;BME280;964;42.606;23.588;2024-03-08T04:53:15;94585.25;;;13.53;47.97
1926;BME280;964;42.606;23.588;2024-03-08T04:55:45;94591.97;;;12.47;48.81
1926;BME280;964;42.606;23.588;2024-03-08T04:58:11;94599.16;;;12.73;48.89
1926;BME280;964;42.606;23.588;2024-03-08T05:00:38;94602.47;;;12.37;50.42
1926;BME280;964;42.606;23.588;2024-03-08T05:03:05;94594.38;;;12.56;48.87
1926;BME280;964;42.606;23.588;2024-03-08T05:05:31;94593.44;;;13.04;48.80
1926;BME280;964;42.606;23.588;2024-03-08T05:07:58;94594.31;;;13.12;47.83
1926;BME280;964;42.606;23.588;2024-03-08T05:10:26;94590.56;;;13.50;46.85
1926;BME280;964;42.606;23.588;2024-03-08T05:12:54;94598.94;;;12.55;48.86
1926;BME280;964;42.606;23.588;2024-03-08T05:15:21;94601.03;;;13.02;47.63
1926;BME280;964;42.606;23.588;2024-03-08T05:17:48;94602.38;;;13.56;46.83
1926;BME280;964;42.606;23.588;2024-03-08T05:20:15;94598.72;;;13.31;47.73
1926;BME280;964;42.606;23.588;2024-03-08T05:22:42;94615.66;;;13.15;47.11
1926;BME280;964;42.606;23.588;2024-03-08T05:25:09;94612.34;;;13.25;46.92
1926;BME280;964;42.606;23.588;2024-03-08T05:27:36;94608.03;;;13.47;47.19
1926;BME280;964;42.606;23.588;2024-03-08T05:30:05;94621.88;;;12.67;47.80
1926;BME280;964;42.606;23.588;2024-03-08T05:32:32;94630.34;;;12.76;48.07
1926;BME280;964;42.606;23.588;2024-03-08T05:34:59;94632.38;;;12.07;49.49
1926;BME280;964;42.606;23.588;2024-03-08T05:37:26;94633.75;;;13.06;47.35
1926;BME280;964;42.606;23.588;2024-03-08T05:39:53;94628.56;;;13.13;46.96
1926;BME280;964;42.606;23.588;2024-03-08T05:42:21;94638.38;;;13.09;46.72
1926;BME280;964;42.606;23.588;2024-03-08T05:44:47;94638.91;;;13.59;46.48
1926;BME280;964;42.606;23.588;2024-03-08T05:47:16;94646.06;;;12.88;47.15
1926;BME280;964;42.606;23.588;2024-03-08T05:49:43;94638.94;;;13.22;46.96
1926;BME280;964;42.606;23.588;2024-03-08T05:52:11;94648.50;;;13.00;47.33
1926;BME280;964;42.606;23.588;2024-03-08T05:54:37;94645.13;;;13.03;47.62
1926;BME280;964;42.606;23.588;2024-03-08T05:57:04;94657.97;;;12.42;48.47
1926;BME280;964;42.606;23.588;2024-03-08T05:59:31;94655.16;;;13.13;46.49
1926;BME280;964;42.606;23.588;2024-03-08T06:01:58;94663.16;;;12.87;47.91
1926;BME280;964;42.606;23.588;2024-03-08T06:04:26;94663.00;;;13.33;46.74
1926;BME280;964;42.606;23.588;2024-03-08T06:06:56;94662.50;;;12.97;46.82
1926;BME280;964;42.606;23.588;2024-03-08T06:09:23;94664.63;;;12.85;47.15
1926;BME280;964;42.606;23.588;2024-03-08T06:11:50;94668.28;;;13.29;47.84
1926;BME280;964;42.606;23.588;2024-03-08T06:14:17;94664.75;;;13.55;45.74
1926;BME280;964;42.606;23.588;2024-03-08T06:16:44;94662.84;;;13.92;45.42
1926;BME280;964;42.606;23.588;2024-03-08T06:19:11;94677.78;;;13.63;46.14
1926;BME280;964;42.606;23.588;2024-03-08T06:21:39;94670.88;;;13.59;45.94
1926;BME280;964;42.606;23.588;2024-03-08T06:24:06;94670.78;;;13.52;46.19
1926;BME280;964;42.606;23.588;2024-03-08T06:26:33;94672.72;;;13.51;45.37
1926;BME280;964;42.606;23.588;2024-03-08T06:29:03;94672.22;;;13.42;46.16
1926;BME280;964;42.606;23.588;2024-03-08T06:31:32;94673.50;;;13.22;46.91
1926;BME280;964;42.606;23.588;2024-03-08T06:33:58;94672.75;;;13.95;44.87
1926;BME280;964;42.606;23.588;2024-03-08T06:36:25;94684.28;;;13.33;45.85
1926;BME280;964;42.606;23.588;2024-03-08T06:38:55;94682.13;;;13.79;45.62
1926;BME280;964;42.606;23.588;2024-03-08T06:41:23;94683.03;;;12.97;47.01
1926;BME280;964;42.606;23.588;2024-03-08T06:43:49;94675.34;;;13.88;44.69
1926;BME280;964;42.606;23.588;2024-03-08T06:46:17;94680.13;;;13.68;45.49
1926;BME280;964;42.606;23.588;2024-03-08T06:48:45;94674.56;;;14.28;44.18
1926;BME280;964;42.606;23.588;2024-03-08T06:51:12;94685.75;;;14.41;44.43
1926;BME280;964;42.606;23.588;2024-03-08T06:53:39;94682.47;;;14.17;44.33
1926;BME280;964;42.606;23.588;2024-03-08T06:56:08;94682.31;;;14.00;44.53
1926;BME280;964;42.606;23.588;2024-03-08T06:58:35;94686.75;;;13.85;45.36
1926;BME280;964;42.606;23.588;2024-03-08T07:01:01;94688.94;;;14.16;44.27
1926;BME280;964;42.606;23.588;2024-03-08T07:03:29;94689.09;;;14.85;43.23
1926;BME280;964;42.606;23.588;2024-03-08T07:05:57;94692.00;;;14.62;43.23
1926;BME280;964;42.606;23.588;2024-03-08T07:08:24;94688.50;;;14.55;44.08
1926;BME280;964;42.606;23.588;2024-03-08T07:10:52;94688.09;;;15.07;42.18
1926;BME280;964;42.606;23.588;2024-03-08T07:13:20;94686.06;;;15.59;41.54
1926;BME280;964;42.606;23.588;2024-03-08T07:15:47;94691.06;;;14.95;42.63
1926;BME280;964;42.606;23.588;2024-03-08T07:18:13;94690.75;;;15.07;41.91
1926;BME280;964;42.606;23.588;2024-03-08T07:20:41;94692.53;;;14.82;43.24
1926;BME280;964;42.606;23.588;2024-03-08T07:23:08;94679.88;;;15.41;42.45
1926;BME280;964;42.606;23.588;2024-03-08T07:25:36;94682.63;;;15.58;41.31
1926;BME280;964;42.606;23.588;2024-03-08T07:28:04;94680.00;;;15.83;40.99
1926;BME280;964;42.606;23.588;2024-03-08T07:30:34;94692.19;;;15.70;41.32
1926;BME280;964;42.606;23.588;2024-03-08T07:33:33;94685.69;;;15.71;40.52
1926;BME280;964;42.606;23.588;2024-03-08T07:36:00;94689.06;;;15.50;41.81
1926;BME280;964;42.606;23.588;2024-03-08T07:38:27;94687.66;;;15.88;41.16
1926;BME280;964;42.606;23.588;2024-03-08T07:40:55;94689.03;;;15.47;41.05
1926;BME280;964;42.606;23.588;2024-03-08T07:43:22;94679.31;;;16.78;39.49
1926;BME280;964;42.606;23.588;2024-03-08T07:45:51;94680.84;;;16.90;39.86
1926;BME280;964;42.606;23.588;2024-03-08T07:48:18;94681.59;;;16.83;38.87
1926;BME280;964;42.606;23.588;2024-03-08T07:50:46;94678.03;;;17.36;38.69
1926;BME280;964;42.606;23.588;2024-03-08T07:53:15;94681.38;;;17.61;38.27
1926;BME280;964;42.606;23.588;2024-03-08T07:55:42;94672.94;;;18.76;36.23
1926;BME280;964;42.606;23.588;2024-03-08T07:58:10;94671.00;;;19.18;34.85
1926;BME280;964;42.606;23.588;2024-03-08T08:00:38;94675.38;;;19.38;33.99
1926;BME280;964;42.606;23.588;2024-03-08T08:03:08;94668.25;;;20.16;32.47
1926;BME280;964;42.606;23.588;2024-03-08T08:05:35;94675.91;;;19.60;33.35
1926;BME280;964;42.606;23.588;2024-03-08T08:08:04;94667.72;;;20.28;33.19
1926;BME280;964;42.606;23.588;2024-03-08T08:10:32;94670.28;;;19.81;33.35
1926;BME280;964;42.606;23.588;2024-03-08T08:12:58;94678.91;;;18.94;34.53
1926;BME280;964;42.606;23.588;2024-03-08T08:15:25;94675.50;;;19.28;33.66
1926;BME280;964;42.606;23.588;2024-03-08T08:17:53;94680.03;;;19.38;33.72
1926;BME280;964;42.606;23.588;2024-03-08T08:20:22;94670.66;;;19.16;34.35
1926;BME280;964;42.606;23.588;2024-03-08T08:22:49;94672.50;;;19.86;32.75
1926;BME280;964;42.606;23.588;2024-03-08T08:25:15;94666.84;;;20.07;33.07
1926;BME280;964;42.606;23.588;2024-03-08T08:27:45;94661.38;;;20.65;32.55
1926;BME280;964;42.606;23.588;2024-03-08T08:30:13;94659.19;;;20.33;32.86
1926;BME280;964;42.606;23.588;2024-03-08T08:32:39;94651.78;;;21.07;32.19
1926;BME280;964;42.606;23.588;2024-03-08T08:35:08;94658.53;;;21.38;30.91
1926;BME280;964;42.606;23.588;2024-03-08T08:37:40;94651.53;;;23.54;29.13
1926;BME280;964;42.606;23.588;2024-03-08T08:40:07;94650.47;;;23.07;29.35
1926;BME280;964;42.606;23.588;2024-03-08T08:42:36;94658.47;;;22.33;29.10
1926;BME280;964;42.606;23.588;2024-03-08T08:45:04;94661.63;;;21.95;29.92
1926;BME280;964;42.606;23.588;2024-03-08T08:47:34;94661.56;;;21.40;30.48
1926;BME280;964;42.606;23.588;2024-03-08T08:50:00;94665.44;;;20.96;32.22
1926;BME280;964;42.606;23.588;2024-03-08T08:52:27;94666.53;;;20.79;31.47
1926;BME280;964;42.606;23.588;2024-03-08T08:54:57;94674.75;;;19.91;32.97
1926;BME280;964;42.606;23.588;2024-03-08T08:57:24;94663.47;;;20.77;31.44
1926;BME280;964;42.606;23.588;2024-03-08T08:59:52;94657.66;;;21.44;30.60
1926;BME280;964;42.606;23.588;2024-03-08T09:02:20;94647.38;;;21.95;30.10
1926;BME280;964;42.606;23.588;2024-03-08T09:04:47;94628.31;;;25.05;26.87
1926;BME280;964;42.606;23.588;2024-03-08T09:07:14;94623.81;;;27.14;25.15
1926;BME280;964;42.606;23.588;2024-03-08T09:09:42;94604.09;;;30.02;21.91
1926;BME280;964;42.606;23.588;2024-03-08T09:12:10;94611.97;;;29.70;21.50
1926;BME280;964;42.606;23.588;2024-03-08T09:14:39;94610.75;;;29.42;21.21
1926;BME280;964;42.606;23.588;2024-03-08T09:17:06;94609.47;;;31.01;20.43
1926;BME280;964;42.606;23.588;2024-03-08T09:19:33;94603.78;;;32.39;19.25
1926;BME280;964;42.606;23.588;2024-03-08T09:22:00;94611.63;;;30.97;19.94
1926;BME280;964;42.606;23.588;2024-03-08T09:24:29;94617.50;;;30.90;19.65
1926;BME280;964;42.606;23.588;2024-03-08T09:26:56;94602.59;;;32.08;19.50
1926;BME280;964;42.606;23.588;2024-03-08T09:29:25;94618.97;;;29.86;21.04
1926;BME280;964;42.606;23.588;2024-03-08T09:31:52;94644.09;;;25.19;25.33
1926;BME280;964;42.606;23.588;2024-03-08T09:34:19;94654.09;;;24.12;25.78
1926;BME280;964;42.606;23.588;2024-03-08T09:36:46;94651.75;;;24.39;26.98
1926;BME280;964;42.606;23.588;2024-03-08T09:39:12;94670.13;;;21.74;28.79
1926;BME280;964;42.606;23.588;2024-03-08T09:41:42;94651.53;;;22.16;28.75
1926;BME280;964;42.606;23.588;2024-03-08T09:44:10;94666.53;;;20.79;28.86
1926;BME280;964;42.606;23.588;2024-03-08T09:46:38;94671.03;;;20.85;29.41
1926;BME280;964;42.606;23.588;2024-03-08T09:49:06;94666.34;;;20.43;30.89
1926;BME280;964;42.606;23.588;2024-03-08T09:51:34;94656.81;;;20.38;30.70
1926;BME280;964;42.606;23.588;2024-03-08T09:54:01;94655.09;;;20.71;29.39
1926;BME280;964;42.606;23.588;2024-03-08T09:56:32;94648.88;;;21.76;29.02
1926;BME280;964;42.606;23.588;2024-03-08T09:58:59;94649.53;;;22.36;28.80
1926;BME280;964;42.606;23.588;2024-03-08T10:02:12;94650.03;;;22.15;28.66
1926;BME280;964;42.606;23.588;2024-03-08T10:04:40;94650.53;;;22.26;28.96
1926;BME280;964;42.606;23.588;2024-03-08T10:07:08;94662.75;;;21.59;29.70
1926;BME280;964;42.606;23.588;2024-03-08T10:09:34;94662.03;;;20.72;29.95
1926;BME280;964;42.606;23.588;2024-03-08T10:12:01;94658.22;;;21.91;28.85
1926;BME280;964;42.606;23.588;2024-03-08T10:14:28;94655.19;;;21.11;30.39
1926;BME280;964;42.606;23.588;2024-03-08T10:16:55;94663.09;;;20.01;32.51
1926;BME280;964;42.606;23.588;2024-03-08T10:19:27;94661.66;;;19.93;31.78
1926;BME280;964;42.606;23.588;2024-03-08T10:21:56;94672.88;;;19.58;32.27
1926;BME280;964;42.606;23.588;2024-03-08T10:24:24;94665.16;;;20.44;31.06
1926;BME280;964;42.606;23.588;2024-03-08T10:26:52;94656.44;;;20.60;31.18
1926;BME280;964;42.606;23.588;2024-03-08T10:29:19;94663.88;;;20.52;31.21
1926;BME280;964;42.606;23.588;2024-03-08T10:31:46;94654.34;;;20.47;31.05
1926;BME280;964;42.606;23.588;2024-03-08T10:34:13;94672.63;;;19.12;32.82
1926;BME280;964;42.606;23.588;2024-03-08T10:36:41;94664.66;;;19.99;31.91
1926;BME280;964;42.606;23.588;2024-03-08T10:39:19;94654.63;;;20.30;31.78
1926;BME280;964;42.606;23.588;2024-03-08T10:41:51;94653.00;;;21.02;30.85
1926;BME280;964;42.606;23.588;2024-03-08T10:44:31;94647.31;;;20.77;32.24
1926;BME280;964;42.606;23.588;2024-03-08T10:47:02;94652.28;;;21.01;32.38
1926;BME280;964;42.606;23.588;2024-03-08T10:49:31;94660.22;;;19.21;34.47
1926;BME280;964;42.606;23.588;2024-03-08T10:52:02;94658.66;;;19.24;33.88
1926;BME280;964;42.606;23.588;2024-03-08T10:54:31;94641.53;;;20.55;32.16
1926;BME280;964;42.606;23.588;2024-03-08T10:56:59;94643.81;;;20.06;32.19
1926;BME280;964;42.606;23.588;2024-03-08T10:59:26;94652.72;;;19.73;32.90
1926;BME280;964;42.606;23.588;2024-03-08T11:01:54;94634.63;;;20.54;31.78
1926;BME280;964;42.606;23.588;2024-03-08T11:04:21;94636.50;;;20.34;32.71
1926;BME280;964;42.606;23.588;2024-03-08T11:06:50;94641.41;;;19.58;32.46
1926;BME280;964;42.606;23.588;2024-03-08T11:09:29;94640.91;;;19.94;32.93
1926;BME280;964;42.606;23.588;2024-03-08T11:12:18;94634.88;;;19.86;32.98
1926;BME280;964;42.606;23.588;2024-03-08T11:14:46;94637.09;;;19.31;33.46
1926;BME280;964;42.606;23.588;2024-03-08T11:17:14;94638.53;;;19.39;33.79
1926;BME280;964;42.606;23.588;2024-03-08T11:19:46;94629.38;;;19.93;33.15
1926;BME280;964;42.606;23.588;2024-03-08T11:22:21;94626.97;;;20.52;32.63
1926;BME280;964;42.606;23.588;2024-03-08T11:24:51;94619.13;;;20.62;32.35
1926;BME280;964;42.606;23.588;2024-03-08T11:27:18;94625.94;;;20.66;31.63
1926;BME280;964;42.606;23.588;2024-03-08T11:29:59;94617.66;;;20.57;32.11
1926;BME280;964;42.606;23.588;2024-03-08T11:32:28;94619.78;;;21.12;31.61
1926;BME280;964;42.606;23.588;2024-03-08T11:34:59;94611.50;;;20.57;32.39
1926;BME280;964;42.606;23.588;2024-03-08T11:37:33;94608.34;;;20.62;31.46
1926;BME280;964;42.606;23.588;2024-03-08T11:40:11;94605.25;;;21.26;31.70
1926;BME280;964;42.606;23.588;2024-03-08T11:42:40;94603.13;;;20.51;31.86
1926;BME280;964;42.606;23.588;2024-03-08T11:45:08;94603.38;;;20.60;31.56
1926;BME280;964;42.606;23.588;2024-03-08T11:47:36;94621.44;;;18.88;33.92
1926;BME280;964;42.606;23.588;2024-03-08T11:50:06;94607.56;;;19.88;33.25
1926;BME280;964;42.606;23.588;2024-03-08T11:52:36;94622.41;;;19.39;33.21
1926;BME280;964;42.606;23.588;2024-03-08T11:55:05;94597.41;;;20.72;31.46
1926;BME280;964;42.606;23.588;2024-03-08T11:57:32;94595.38;;;21.75;30.56
1926;BME280;964;42.606;23.588;2024-03-08T11:59:59;94589.38;;;22.35;29.97
1926;BME280;964;42.606;23.588;2024-03-08T12:02:32;94585.41;;;22.40;29.81
1926;BME280;964;42.606;23.588;2024-03-08T12:05:00;94596.72;;;21.47;30.71
1926;BME280;964;42.606;23.588;2024-03-08T12:07:28;94597.09;;;22.33;29.36
1926;BME280;964;42.606;23.588;2024-03-08T12:10:19;94582.22;;;23.85;29.11
1926;BME280;964;42.606;23.588;2024-03-08T12:12:47;94583.16;;;24.76;27.97
1926;BME280;964;42.606;23.588;2024-03-08T12:15:17;94585.34;;;23.84;27.82
1926;BME280;964;42.606;23.588;2024-03-08T12:17:44;94585.75;;;23.57;27.43
1926;BME280;964;42.606;23.588;2024-03-08T12:20:15;94578.22;;;24.62;26.61
1926;BME280;964;42.606;23.588;2024-03-08T12:22:42;94579.81;;;25.07;26.64
1926;BME280;964;42.606;23.588;2024-03-08T12:25:10;94567.72;;;24.99;25.21
1926;BME280;964;42.606;23.588;2024-03-08T12:27:39;94561.84;;;26.14;25.07
1926;BME280;964;42.606;23.588;2024-03-08T12:30:18;94567.81;;;25.60;24.59
1926;BME280;964;42.606;23.588;2024-03-08T12:32:50;94556.09;;;25.20;25.19
1926;BME280;964;42.606;23.588;2024-03-08T12:35:19;94557.38;;;24.84;26.13
1926;BME280;964;42.606;23.588;2024-03-08T12:37:48;94559.06;;;25.56;26.00
1926;BME280;964;42.606;23.588;2024-03-08T12:40:16;94557.72;;;24.27;27.02
1926;BME280;964;42.606;23.588;2024-03-08T12:42:45;94555.69;;;24.53;26.76
1926;BME280;964;42.606;23.588;2024-03-08T12:45:14;94560.34;;;24.65;27.03
1926;BME280;964;42.606;23.588;2024-03-08T12:47:41;94553.31;;;24.89;25.68
1926;BME280;964;42.606;23.588;2024-03-08T12:50:09;94540.06;;;26.72;25.04
1926;BME280;964;42.606;23.588;2024-03-08T12:52:36;94522.34;;;28.87;22.58
1926;BME280;964;42.606;23.588;2024-03-08T12:55:04;94521.22;;;30.10;21.13
1926;BME280;964;42.606;23.588;2024-03-08T12:57:33;94507.53;;;32.00;19.73
1926;BME280;964;42.606;23.588;2024-03-08T13:00:02;94516.28;;;30.70;19.80
1926;BME280;964;42.606;23.588;2024-03-08T13:02:30;94547.16;;;26.52;22.90
1926;BME280;964;42.606;23.588;2024-03-08T13:04:58;94533.66;;;27.57;23.34
1926;BME280;964;42.606;23.588;2024-03-08T13:07:25;94521.06;;;29.26;21.63
1926;BME280;964;42.606;23.588;2024-03-08T13:09:52;94508.41;;;30.97;20.40
1926;BME280;964;42.606;23.588;2024-03-08T13:12:20;94525.69;;;29.20;21.15
1926;BME280;964;42.606;23.588;2024-03-08T13:14:49;94534.19;;;26.74;22.78
1926;BME280;964;42.606;23.588;2024-03-08T13:17:17;94540.09;;;26.91;23.08
1926;BME280;964;42.606;23.588;2024-03-08T13:19:44;94548.72;;;24.30;26.17
1926;BME280;964;42.606;23.588;2024-03-08T13:22:11;94563.78;;;23.14;28.23
1926;BME280;964;42.606;23.588;2024-03-08T13:24:38;94566.72;;;23.19;28.59
1926;BME280;964;42.606;23.588;2024-03-08T13:27:07;94561.94;;;22.21;29.43
1926;BME280;964;42.606;23.588;2024-03-08T13:29:45;94579.25;;;21.35;30.84
1926;BME280;964;42.606;23.588;2024-03-08T13:32:13;94573.78;;;22.11;29.61
1926;BME280;964;42.606;23.588;2024-03-08T13:34:42;94562.78;;;22.02;29.85